createdAt,value
2019-02-16T00:02:19.258Z,6.60
2019-02-16T00:04:47.821Z,6.80
2019-02-16T00:07:16.378Z,7.00
2019-02-16T00:09:45.256Z,7.00
2019-02-16T00:12:13.798Z,7.00
2019-02-16T00:14:42.629Z,7.00
2019-02-16T00:17:11.625Z,7.00
2019-02-16T00:19:40.155Z,7.20
2019-02-16T00:22:08.745Z,7.20
2019-02-16T00:24:37.308Z,7.20
2019-02-16T00:27:05.859Z,7.30
2019-02-16T00:29:34.430Z,7.40
2019-02-16T00:32:02.986Z,7.50
2019-02-16T00:34:31.572Z,7.50
2019-02-16T00:37:00.452Z,7.50
2019-02-16T00:39:29.002Z,7.40
2019-02-16T00:41:57.586Z,7.40
2019-02-16T00:44:26.127Z,7.50
2019-02-16T00:46:54.696Z,7.60
2019-02-16T00:49:23.234Z,7.70
2019-02-16T00:51:51.751Z,7.70
2019-02-16T00:54:20.235Z,7.60
2019-02-16T00:56:48.810Z,7.50
2019-02-16T00:59:17.378Z,7.40
2019-02-16T01:01:45.928Z,7.20
2019-02-16T01:04:14.445Z,7.00
2019-02-16T01:06:42.920Z,6.90
2019-02-16T01:09:11.392Z,6.90
2019-02-16T01:11:39.966Z,6.80
2019-02-16T01:14:08.523Z,6.80
2019-02-16T01:16:37.091Z,6.80
2019-02-16T01:19:05.657Z,6.80
2019-02-16T01:21:34.213Z,6.90
2019-02-16T01:24:02.787Z,7.00
2019-02-16T01:26:31.345Z,7.00
2019-02-16T01:28:59.949Z,7.00
2019-02-16T01:31:28.945Z,6.90
2019-02-16T01:33:57.549Z,7.00
2019-02-16T01:36:26.253Z,7.00
2019-02-16T01:38:54.848Z,7.10
2019-02-16T01:41:23.482Z,7.00
2019-02-16T01:43:52.091Z,6.90
2019-02-16T01:46:20.725Z,6.90
2019-02-16T01:48:49.570Z,6.90
2019-02-16T01:51:18.133Z,6.90
2019-02-16T01:53:46.756Z,6.80
2019-02-16T01:56:15.370Z,6.70
2019-02-16T01:58:44.020Z,6.60
2019-02-16T02:01:12.634Z,6.50
2019-02-16T02:03:41.231Z,6.50
2019-02-16T02:06:10.175Z,6.50
2019-02-16T02:08:38.781Z,6.50
2019-02-16T02:11:07.874Z,6.50
2019-02-16T02:13:36.506Z,6.50
2019-02-16T02:16:05.430Z,6.50
2019-02-16T02:18:34.043Z,6.50
2019-02-16T02:21:02.642Z,6.50
2019-02-16T02:23:31.264Z,6.60
2019-02-16T02:26:00.269Z,6.70
2019-02-16T02:28:28.881Z,6.70
2019-02-16T02:30:57.503Z,6.70
2019-02-16T02:33:26.237Z,6.70
2019-02-16T02:35:54.881Z,6.50
2019-02-16T02:38:23.483Z,6.30
2019-02-16T02:40:52.121Z,6.20
2019-02-16T02:43:20.721Z,6.10
2019-02-16T02:45:49.317Z,6.00
2019-02-16T02:48:17.951Z,6.00
2019-02-16T02:50:46.563Z,5.90
2019-02-16T02:53:15.200Z,5.90
2019-02-16T02:55:43.809Z,5.90
2019-02-16T02:58:12.419Z,5.80
2019-02-16T03:00:41.043Z,5.80
2019-02-16T03:03:09.651Z,5.90
2019-02-16T03:05:38.279Z,6.10
2019-02-16T03:08:06.881Z,6.50
2019-02-16T03:10:35.823Z,6.70
2019-02-16T03:13:04.443Z,6.80
2019-02-16T03:15:33.044Z,6.80
2019-02-16T03:18:01.692Z,6.70
2019-02-16T03:20:30.290Z,6.80
2019-02-16T03:23:16.948Z,6.70
2019-02-16T03:25:54.384Z,6.60
2019-02-16T03:28:35.585Z,6.50
2019-02-16T03:31:23.823Z,6.30
2019-02-16T03:34:19.585Z,6.00
2019-02-16T03:37:09.237Z,5.60
2019-02-16T03:39:39.638Z,5.50
2019-02-16T03:42:27.573Z,5.50
2019-02-16T03:44:56.591Z,5.50
2019-02-16T03:47:25.187Z,5.70
2019-02-16T03:49:53.795Z,5.90
2019-02-16T03:52:22.390Z,6.00
2019-02-16T03:54:51.429Z,6.00
2019-02-16T03:57:20.049Z,6.00
2019-02-16T03:59:48.638Z,5.90
2019-02-16T04:02:17.270Z,6.00
2019-02-16T04:04:45.872Z,5.90
2019-02-16T04:07:14.578Z,5.90
2019-02-16T04:09:43.260Z,6.00
2019-02-16T04:12:11.869Z,6.00
2019-02-16T04:14:40.487Z,6.00
2019-02-16T04:17:09.096Z,6.10
2019-02-16T04:19:37.733Z,6.00
2019-02-16T04:22:06.330Z,5.90
2019-02-16T04:24:34.968Z,5.80
2019-02-16T04:27:03.551Z,5.70
2019-02-16T04:29:32.105Z,5.60
2019-02-16T04:32:00.741Z,5.30
2019-02-16T04:34:29.289Z,5.10
2019-02-16T04:36:57.769Z,5.00
2019-02-16T04:39:26.230Z,5.00
2019-02-16T04:41:54.702Z,5.20
2019-02-16T04:44:23.257Z,5.10
2019-02-16T04:46:51.766Z,4.80
2019-02-16T04:49:20.284Z,4.50
2019-02-16T04:51:48.813Z,4.50
2019-02-16T04:54:17.389Z,4.30
2019-02-16T04:56:45.968Z,4.30
2019-02-16T04:59:14.574Z,4.40
2019-02-16T05:01:43.108Z,4.50
2019-02-16T05:04:12.016Z,4.30
2019-02-16T05:06:40.491Z,4.00
2019-02-16T05:09:08.986Z,3.80
2019-02-16T05:11:37.535Z,3.70
2019-02-16T05:14:06.121Z,3.60
2019-02-16T05:16:35.020Z,3.60
2019-02-16T05:19:03.578Z,3.40
2019-02-16T05:21:32.157Z,3.20
2019-02-16T05:24:00.706Z,3.20
2019-02-16T05:26:29.301Z,3.30
2019-02-16T05:28:57.866Z,3.50
2019-02-16T05:31:26.415Z,3.60
2019-02-16T05:33:54.996Z,3.50
2019-02-16T05:36:23.871Z,3.30
2019-02-16T05:38:52.448Z,3.10
2019-02-16T05:41:21.016Z,2.90
2019-02-16T05:43:49.569Z,2.90
2019-02-16T05:46:18.058Z,2.80
2019-02-16T05:48:46.585Z,2.80
2019-02-16T05:51:15.175Z,2.70
2019-02-16T05:53:43.732Z,2.60
2019-02-16T05:56:12.611Z,2.60
2019-02-16T05:58:41.208Z,2.70
2019-02-16T06:01:09.742Z,2.70
2019-02-16T06:03:38.268Z,2.60
2019-02-16T06:06:06.861Z,2.50
2019-02-16T06:08:35.331Z,2.40
2019-02-16T06:11:05.829Z,2.40
2019-02-16T06:13:34.099Z,2.40
2019-02-16T06:16:03.463Z,2.40
2019-02-16T06:18:45.199Z,2.50
2019-02-16T06:21:14.177Z,2.50
2019-02-16T06:23:42.717Z,2.40
2019-02-16T06:26:11.294Z,2.30
2019-02-16T06:28:39.864Z,2.20
2019-02-16T06:31:08.424Z,2.10
2019-02-16T06:33:36.963Z,2.20
2019-02-16T06:36:07.124Z,2.40
2019-02-16T06:38:35.692Z,2.40
2019-02-16T06:41:04.245Z,2.30
2019-02-16T06:43:33.133Z,2.50
2019-02-16T06:46:01.727Z,2.90
2019-02-16T06:48:30.293Z,3.20
2019-02-16T06:50:58.845Z,3.30
2019-02-16T06:53:27.417Z,3.40
2019-02-16T06:55:57.533Z,3.50
2019-02-16T06:58:26.115Z,3.60
2019-02-16T07:00:54.672Z,3.40
2019-02-16T07:03:23.254Z,3.60
2019-02-16T07:05:51.820Z,3.60
2019-02-16T07:08:20.373Z,3.60
2019-02-16T07:10:48.940Z,3.50
2019-02-16T07:13:17.834Z,3.60
2019-02-16T07:15:48.057Z,3.60
2019-02-16T07:18:18.270Z,3.70
2019-02-16T07:20:46.840Z,3.80
2019-02-16T07:23:22.153Z,3.90
2019-02-16T07:25:45.626Z,4.00
2019-02-16T07:28:14.242Z,4.10
2019-02-16T07:30:42.820Z,4.20
2019-02-16T07:33:11.368Z,4.30
2019-02-16T07:35:39.943Z,4.30
2019-02-16T07:38:08.498Z,4.40
2019-02-16T07:40:37.080Z,4.50
2019-02-16T07:43:06.207Z,4.40
2019-02-16T07:45:36.395Z,4.30
2019-02-16T07:48:06.619Z,4.30
2019-02-16T07:50:39.787Z,4.40
2019-02-16T07:53:18.795Z,4.50
2019-02-16T07:55:48.998Z,4.60
2019-02-16T07:58:19.105Z,4.80
2019-02-16T08:00:51.745Z,4.90
2019-02-16T08:03:38.090Z,4.90
2019-02-16T08:06:08.326Z,5.10
2019-02-16T08:08:41.226Z,5.90
2019-02-16T08:11:17.208Z,6.80
2019-02-16T08:13:50.383Z,8.00
2019-02-16T08:16:20.569Z,9.20
2019-02-16T08:18:50.723Z,10.00
2019-02-16T08:21:23.666Z,10.40
2019-02-16T08:24:10.217Z,10.40
2019-02-16T08:26:40.431Z,10.80
2019-02-16T08:29:13.430Z,12.20
2019-02-16T08:31:43.632Z,12.70
2019-02-16T08:34:25.654Z,13.70
2019-02-16T08:37:04.693Z,14.00
2019-02-16T08:39:34.869Z,13.80
2019-02-16T08:42:05.020Z,13.60
2019-02-16T08:44:38.240Z,13.10
2019-02-16T08:47:11.001Z,12.70
2019-02-16T08:49:41.191Z,12.50
2019-02-16T08:52:11.427Z,12.70
2019-02-16T08:54:41.630Z,12.70
2019-02-16T08:57:14.864Z,12.70
2019-02-16T08:59:56.830Z,12.90
2019-02-16T09:02:29.727Z,13.30
2019-02-16T09:05:02.605Z,14.20
2019-02-16T09:07:44.847Z,15.10
2019-02-16T09:10:15.037Z,15.70
2019-02-16T09:12:51.027Z,15.70
2019-02-16T09:15:21.296Z,15.70
2019-02-16T09:17:54.220Z,16.20
2019-02-16T09:20:24.405Z,16.00
2019-02-16T09:23:03.601Z,16.70
2019-02-16T09:25:42.461Z,17.40
2019-02-16T09:28:12.724Z,18.00
2019-02-16T09:30:52.156Z,17.90
2019-02-16T09:33:38.637Z,18.00
2019-02-16T09:36:08.846Z,17.70
2019-02-16T09:38:38.990Z,18.00
2019-02-16T09:41:25.643Z,18.30
2019-02-16T09:43:55.869Z,18.40
2019-02-16T09:46:26.067Z,19.20
2019-02-16T09:49:11.503Z,19.10
2019-02-16T09:51:41.730Z,18.50
2019-02-16T09:54:15.099Z,18.20
2019-02-16T09:56:48.257Z,17.80
2019-02-16T09:59:24.261Z,17.90
2019-02-16T10:02:09.445Z,17.90
2019-02-16T10:04:45.455Z,17.80
2019-02-16T10:07:15.689Z,17.70
2019-02-16T10:09:45.906Z,18.00
2019-02-16T10:12:16.219Z,18.30
2019-02-16T10:14:55.267Z,18.80
2019-02-16T10:17:42.059Z,19.30
2019-02-16T10:20:18.266Z,19.70
2019-02-16T10:22:57.204Z,19.50
2019-02-16T10:25:33.492Z,19.10
2019-02-16T10:28:19.162Z,18.70
2019-02-16T10:31:04.726Z,18.90
2019-02-16T10:33:37.718Z,19.20
2019-02-16T10:36:16.970Z,19.80
2019-02-16T10:38:47.179Z,20.50
2019-02-16T10:41:17.410Z,21.20
2019-02-16T10:43:50.303Z,21.30
2019-02-16T10:46:32.853Z,21.20
2019-02-16T10:49:03.083Z,21.10
2019-02-16T10:51:39.133Z,21.10
2019-02-16T10:54:15.417Z,21.10
2019-02-16T10:56:45.651Z,21.30
2019-02-16T10:59:21.465Z,21.50
2019-02-16T11:02:00.575Z,21.10
2019-02-16T11:04:37.903Z,20.60
2019-02-16T11:07:03.026Z,20.40
2019-02-16T11:09:39.018Z,20.50
2019-02-16T11:12:15.015Z,21.10
2019-02-16T11:14:51.229Z,21.50
2019-02-16T11:17:33.766Z,22.00
2019-02-16T11:20:13.261Z,21.40
2019-02-16T11:22:52.371Z,21.40
2019-02-16T11:25:25.576Z,21.60
2019-02-16T11:28:11.189Z,21.80
2019-02-16T11:30:41.404Z,22.20
2019-02-16T11:33:13.440Z,21.90
2019-02-16T11:35:43.465Z,21.20
2019-02-16T11:38:16.863Z,20.90
2019-02-16T11:40:47.067Z,20.70
2019-02-16T11:43:17.625Z,21.10
2019-02-16T11:45:54.059Z,20.80
2019-02-16T11:48:24.299Z,20.00
2019-02-16T11:51:00.162Z,20.50
2019-02-16T11:53:48.833Z,21.50
2019-02-16T11:56:24.952Z,22.00
2019-02-16T11:58:57.987Z,21.90
2019-02-16T12:01:28.271Z,22.50
2019-02-16T12:03:58.595Z,23.60
2019-02-16T12:06:28.783Z,24.40
2019-02-16T12:09:08.218Z,24.50
2019-02-16T12:11:38.503Z,24.30
2019-02-16T12:14:26.915Z,24.00
2019-02-16T12:16:59.824Z,24.20
2019-02-16T12:19:36.266Z,23.70
2019-02-16T12:22:18.010Z,23.30
2019-02-16T12:25:06.104Z,23.10
2019-02-16T12:27:45.103Z,22.80
2019-02-16T12:30:18.079Z,22.90
2019-02-16T12:32:54.107Z,22.30
2019-02-16T12:35:33.197Z,22.90
2019-02-16T12:38:06.143Z,23.30
2019-02-16T12:40:48.258Z,24.20
2019-02-16T12:43:34.699Z,24.70
2019-02-16T12:46:10.936Z,24.90
2019-02-16T12:48:44.178Z,25.70
2019-02-16T12:51:23.409Z,26.00
2019-02-16T12:54:02.426Z,24.80
2019-02-16T12:56:32.693Z,24.50
2019-02-16T12:59:17.904Z,23.50
2019-02-16T13:01:48.115Z,22.30
2019-02-16T13:04:18.328Z,21.80
2019-02-16T13:06:48.549Z,21.30
2019-02-16T13:09:18.769Z,21.10
2019-02-16T13:11:53.213Z,21.20
2019-02-16T13:14:23.375Z,21.00
2019-02-16T13:17:02.570Z,20.60
2019-02-16T13:19:38.430Z,20.60
2019-02-16T13:22:08.651Z,20.30
2019-02-16T13:24:44.611Z,20.00
2019-02-16T13:27:14.764Z,19.90
2019-02-16T13:30:03.005Z,20.20
2019-02-16T13:32:36.031Z,20.20
2019-02-16T13:35:09.890Z,20.40
2019-02-16T13:37:42.789Z,20.70
2019-02-16T13:40:29.225Z,21.00
2019-02-16T13:43:05.423Z,20.80
2019-02-16T13:56:57.918Z,22.30
2019-02-16T13:59:31.531Z,19.80
2019-02-16T14:02:08.422Z,19.00
2019-02-16T14:04:42.041Z,19.10
2019-02-16T14:07:13.184Z,18.80
2019-02-16T14:10:00.585Z,18.60
2019-02-16T14:19:44.857Z,20.00
2019-02-16T14:22:14.837Z,19.50
2019-02-16T14:24:51.558Z,19.20
2019-02-16T14:28:44.571Z,19.00
2019-02-16T14:31:15.574Z,18.80
2019-02-16T14:33:44.930Z,18.50
2019-02-16T14:36:14.305Z,18.20
2019-02-16T14:38:48.069Z,18.40
2019-02-16T14:41:17.519Z,18.50
2019-02-16T14:43:46.961Z,18.60
2019-02-16T14:46:16.369Z,18.60
2019-02-16T14:53:47.077Z,18.70
2019-02-16T15:22:32.513Z,15.40
2019-02-16T15:25:01.929Z,15.00
2019-02-16T15:27:31.313Z,14.70
2019-02-16T15:30:01.071Z,14.50
2019-02-16T15:32:30.746Z,14.20
2019-02-16T15:35:00.326Z,14.10
2019-02-16T15:37:41.807Z,13.90
2019-02-16T15:40:12.401Z,13.90
2019-02-16T15:42:42.357Z,13.80
2019-02-16T15:59:51.923Z,13.40
2019-02-16T16:02:21.471Z,13.40
2019-02-16T16:04:50.964Z,13.30
2019-02-16T16:07:20.490Z,13.20
2019-02-16T16:09:51.613Z,13.20
2019-02-16T16:12:31.585Z,13.10
2019-02-16T16:15:08.761Z,13.10
2019-02-16T16:20:34.117Z,13.10
2019-02-16T16:23:05.248Z,12.90
2019-02-16T16:31:49.986Z,12.70
2019-02-16T16:35:49.791Z,12.50
2019-02-16T16:38:33.188Z,12.30
2019-02-16T16:41:16.387Z,12.30
2019-02-16T16:43:47.546Z,12.20
2019-02-16T16:46:18.690Z,12.10
2019-02-16T16:48:52.494Z,12.00
2019-02-16T16:51:29.390Z,11.90
2019-02-16T16:54:00.531Z,11.70
2019-02-16T16:56:40.513Z,11.70
2019-02-16T16:59:11.654Z,11.70
2019-02-16T17:01:42.935Z,11.60
2019-02-16T17:04:16.786Z,11.50
2019-02-16T17:07:03.740Z,11.30
2019-02-16T17:09:52.787Z,11.10
2019-02-16T17:12:42.101Z,11.00
2019-02-16T17:15:30.103Z,10.80
2019-02-16T17:18:03.942Z,10.50
2019-02-16T17:20:35.100Z,10.10
2019-02-16T17:23:14.865Z,9.80
2019-02-16T17:25:46.301Z,9.60
2019-02-16T17:28:23.498Z,9.40
2019-02-16T17:30:54.625Z,9.30
2019-02-16T17:33:40.813Z,9.20
2019-02-16T17:36:28.017Z,9.10
2019-02-16T17:38:59.216Z,9.00
2019-02-16T17:41:33.488Z,9.00
2019-02-16T17:44:04.684Z,9.00
2019-02-16T17:46:35.808Z,8.90
2019-02-16T17:49:07.219Z,8.90
2019-02-16T17:51:54.531Z,8.70
2019-02-16T17:54:26.052Z,8.60
2019-02-16T17:56:57.192Z,8.30
2019-02-16T17:59:28.325Z,8.10
2019-02-16T18:02:15.701Z,7.90
2019-02-16T18:04:49.541Z,7.70
2019-02-16T18:07:29.425Z,7.60
2019-02-16T18:10:09.266Z,7.50
2019-02-16T18:12:53.137Z,7.50
2019-02-16T18:15:33.024Z,7.40
2019-02-16T18:18:07.001Z,7.30
2019-02-16T18:20:49.694Z,7.30
2019-02-16T18:23:20.922Z,7.20
2019-02-16T18:25:54.743Z,7.20
2019-02-16T18:28:28.583Z,7.10
2019-02-16T18:31:02.651Z,7.20
2019-02-16T18:33:40.538Z,7.20
2019-02-16T18:36:28.151Z,7.10
2019-02-16T18:38:59.318Z,7.00
2019-02-16T18:41:33.146Z,6.90
2019-02-16T18:44:04.308Z,6.80
2019-02-16T18:46:38.441Z,6.80
2019-02-16T18:49:15.460Z,6.70
2019-02-16T18:51:52.816Z,6.60
2019-02-16T18:54:30.173Z,6.50
2019-02-16T18:57:10.307Z,6.50
2019-02-16T18:59:47.484Z,6.50
2019-02-16T19:02:21.321Z,6.40
2019-02-16T19:04:58.333Z,6.40
2019-02-16T19:07:30.042Z,6.50
2019-02-16T19:16:02.383Z,6.30
2019-02-16T19:18:33.622Z,6.00
2019-02-16T19:21:04.768Z,5.90
2019-02-16T19:23:35.933Z,5.80
2019-02-16T19:26:07.439Z,5.80
2019-02-16T19:28:38.653Z,5.70
2019-02-16T19:31:26.003Z,5.60
2019-02-16T19:33:57.435Z,5.70
2019-02-16T19:36:28.680Z,5.70
2019-02-16T19:39:02.757Z,5.70
2019-02-16T19:41:34.053Z,5.70
2019-02-16T19:44:07.818Z,5.70
2019-02-16T19:46:48.207Z,5.60
2019-02-16T19:49:25.479Z,5.60
2019-02-16T19:51:56.640Z,5.50
2019-02-16T19:54:34.133Z,5.40
2019-02-16T19:57:26.386Z,5.30
2019-02-16T20:00:02.455Z,5.30
2019-02-16T20:02:33.951Z,5.30
2019-02-16T20:05:08.207Z,5.20
2019-02-16T20:07:42.155Z,5.20
2019-02-16T20:10:16.043Z,5.10
2019-02-16T20:12:59.066Z,5.10
2019-02-16T20:15:35.912Z,5.10
2019-02-16T20:18:09.652Z,5.10
2019-02-16T20:20:43.258Z,5.00
2019-02-16T20:23:20.032Z,5.00
2019-02-16T20:26:00.354Z,5.00
2019-02-16T20:28:31.855Z,4.90
2019-02-16T20:31:11.683Z,4.80
2019-02-16T20:33:59.017Z,4.70
2019-02-16T20:36:33.029Z,4.60
2019-02-16T20:39:20.085Z,4.60
2019-02-16T20:41:51.301Z,4.50
2019-02-16T20:44:22.928Z,4.50
2019-02-16T20:47:03.479Z,4.50
2019-02-16T20:49:50.542Z,4.50
2019-02-16T20:52:33.533Z,4.50
2019-02-16T20:55:13.800Z,4.70
2019-02-16T20:57:48.559Z,4.70
2019-02-16T21:00:30.273Z,4.60
2019-02-16T21:03:10.791Z,4.60
2019-02-16T21:05:58.374Z,4.60
2019-02-16T21:08:38.331Z,4.50
2019-02-16T21:11:25.880Z,4.40
2019-02-16T21:14:11.983Z,4.30
2019-02-16T21:16:48.949Z,4.10
2019-02-16T21:19:22.538Z,3.90
2019-02-16T21:22:10.223Z,3.70
2019-02-16T21:24:44.500Z,3.50
2019-02-16T21:27:22.187Z,3.40
2019-02-16T21:29:53.647Z,3.30
2019-02-16T21:32:34.188Z,3.20
2019-02-16T21:35:05.461Z,3.20
2019-02-16T21:37:36.705Z,3.20
2019-02-16T21:40:25.465Z,3.10
2019-02-16T21:42:56.608Z,3.10
2019-02-16T21:45:30.516Z,3.10
2019-02-16T21:48:01.666Z,3.20
2019-02-16T21:50:32.804Z,3.20
2019-02-16T21:53:07.211Z,3.20
2019-02-16T21:55:44.361Z,3.20
2019-02-16T21:58:24.613Z,3.20
2019-02-16T22:00:55.759Z,3.20
2019-02-16T22:03:29.709Z,3.20
2019-02-16T22:06:09.509Z,3.10
2019-02-16T22:08:40.655Z,3.10
2019-02-16T22:11:26.866Z,3.10
2019-02-16T22:13:56.358Z,3.10
2019-02-16T22:16:25.959Z,3.20
2019-02-16T22:18:55.904Z,3.20
2019-02-16T22:21:25.410Z,3.20
2019-02-16T22:23:55.310Z,3.20
2019-02-16T22:26:24.830Z,3.20
2019-02-16T22:28:54.331Z,3.20
2019-02-16T22:31:24.117Z,3.20
2019-02-16T22:33:53.615Z,3.20
2019-02-16T22:36:23.531Z,3.30
2019-02-16T22:38:53.033Z,3.40
2019-02-16T22:41:22.632Z,3.60
2019-02-16T22:43:52.117Z,3.70
2019-02-16T22:46:21.616Z,3.90
2019-02-16T22:48:51.208Z,4.10
2019-02-16T22:51:20.700Z,4.30
2019-02-16T22:53:50.554Z,4.50
2019-02-16T22:56:20.050Z,4.80
2019-02-16T22:58:49.593Z,5.00
2019-02-16T23:01:19.537Z,5.10
2019-02-16T23:03:49.476Z,5.20
2019-02-16T23:06:19.027Z,5.40
2019-02-16T23:08:48.661Z,5.60
2019-02-16T23:11:18.221Z,6.00
2019-02-16T23:13:47.805Z,6.10
2019-02-16T23:16:17.375Z,6.30
2019-02-16T23:18:47.032Z,6.50
2019-02-16T23:21:16.916Z,6.60
2019-02-16T23:23:46.415Z,6.70
2019-02-16T23:26:15.989Z,6.80
2019-02-16T23:28:45.482Z,6.90
2019-02-16T23:31:14.986Z,6.80
2019-02-16T23:33:44.487Z,6.60
2019-02-16T23:36:14.091Z,6.30
2019-02-16T23:38:43.594Z,6.20
2019-02-16T23:41:13.103Z,6.20
2019-02-16T23:43:42.892Z,6.10
2019-02-16T23:46:12.403Z,6.10
2019-02-16T23:48:41.938Z,6.10
2019-02-16T23:51:11.457Z,6.00
2019-02-16T23:53:40.955Z,6.00
2019-02-16T23:56:10.475Z,5.90
2019-02-16T23:58:49.016Z,5.80
